Time;durP1;ratioP1;P1;durP2;ratioP2;P2;SDS_P1;SDS_P2;PMS_P1;PMS_P2;Temp;Humidity;BMP_temperature;BMP_pressure;BME280_temperature;BME280_humidity;BME280_pressure;Samples;Min_cycle;Max_cycle;Signal;HPM_P1;HPM_P2
2023/09/14 00:01:56;;;;;;;0.63;0.30;;;;;;;17.18;60.36;100842.63;10379034;28;20046;-65
2023/09/14 00:06:57;;;;;;;1.13;0.40;;;;;;;17.11;60.60;100852.63;10377657;28;20130;-66
2023/09/14 00:11:59;;;;;;;2.80;0.40;;;;;;;17.08;60.62;100853.06;10381161;28;20065;-67
2023/09/14 00:17:00;;;;;;;2.35;0.43;;;;;;;17.05;60.92;100858.91;10377513;28;20052;-66
2023/09/14 00:22:02;;;;;;;1.23;0.43;;;;;;;16.98;61.14;100856.19;10376259;28;20056;-68
2023/09/14 00:27:04;;;;;;;2.88;0.77;;;;;;;16.91;61.14;100849.06;10392895;28;20050;-64
2023/09/14 00:32:05;;;;;;;5.65;0.50;;;;;;;16.85;61.55;100862.41;10382769;28;20140;-63
2023/09/14 00:37:06;;;;;;;2.13;0.55;;;;;;;16.80;61.60;100859.41;10387259;28;20065;-63
2023/09/14 00:42:09;;;;;;;2.92;0.55;;;;;;;16.79;61.53;100859.66;10384153;28;20407;-63
2023/09/14 00:47:10;;;;;;;1.55;0.40;;;;;;;16.70;61.85;100858.97;10376363;28;20140;-63
2023/09/14 00:52:13;;;;;;;1.35;0.50;;;;;;;16.65;62.37;100854.16;10385740;28;20052;-64
2023/09/14 00:57:17;;;;;;;1.15;0.57;;;;;;;16.62;62.16;100857.28;10380191;28;20054;-63
2023/09/14 01:02:18;;;;;;;1.83;0.50;;;;;;;16.54;62.45;100849.31;10377941;28;20141;-67
2023/09/14 01:07:20;;;;;;;2.70;0.60;;;;;;;16.48;62.69;100849.31;10381458;28;20049;-68
2023/09/14 01:12:22;;;;;;;2.22;0.50;;;;;;;16.43;62.75;100848.03;10379290;28;20046;-67
2023/09/14 01:17:38;;;;;;;2.60;0.68;;;;;;;16.37;62.70;100846.13;10376055;28;20073;-67
2023/09/14 01:22:53;;;;;;;1.67;0.60;;;;;;;16.32;62.93;100845.91;10380635;28;20064;-67
2023/09/14 01:28:05;;;;;;;3.03;0.60;;;;;;;16.24;63.43;100844.19;10383096;28;20037;-67
2023/09/14 01:33:10;;;;;;;1.17;0.50;;;;;;;16.16;63.30;100857.09;10382867;28;20049;-67
2023/09/14 01:38:13;;;;;;;1.63;0.95;;;;;;;16.02;63.47;100854.28;10376228;28;20133;-62
2023/09/14 01:43:16;;;;;;;2.72;0.52;;;;;;;16.00;63.75;100853.66;10376836;28;20045;-62
2023/09/14 01:48:19;;;;;;;1.75;0.90;;;;;;;15.95;63.77;100864.25;10378484;28;20044;-60
2023/09/14 01:53:21;;;;;;;2.85;0.60;;;;;;;15.86;64.08;100863.56;10381623;28;20421;-61
2023/09/14 01:58:23;;;;;;;3.50;0.50;;;;;;;15.85;64.13;100861.88;10373512;28;20704;-64
2023/09/14 02:03:24;;;;;;;1.27;0.50;;;;;;;15.67;64.42;100854.22;10388028;28;20041;-62
2023/09/14 02:08:26;;;;;;;2.03;0.80;;;;;;;15.57;64.70;100858.31;10387936;28;20045;-63
2023/09/14 02:13:27;;;;;;;3.67;0.70;;;;;;;15.45;64.92;100860.72;10389417;28;20065;-64
2023/09/14 02:18:29;;;;;;;1.50;0.60;;;;;;;15.36;65.40;100862.72;10391475;28;20052;-63
2023/09/14 02:23:31;;;;;;;1.83;0.57;;;;;;;15.44;65.22;100864.47;10384723;28;20046;-65
2023/09/14 02:28:32;;;;;;;4.15;0.65;;;;;;;15.40;64.99;100861.31;10381575;28;20042;-65
2023/09/14 02:33:33;;;;;;;3.55;0.60;;;;;;;15.42;65.01;100869.22;10390849;28;20053;-65
2023/09/14 02:38:35;;;;;;;1.63;0.60;;;;;;;15.40;65.22;100877.59;10384946;28;20049;-65
2023/09/14 02:43:36;;;;;;;1.52;0.60;;;;;;;15.40;65.23;100883.00;10386795;28;20049;-65
2023/09/14 02:48:38;;;;;;;6.57;0.80;;;;;;;15.34;65.24;100880.22;10383424;28;20489;-63
2023/09/14 02:53:40;;;;;;;2.90;1.00;;;;;;;15.24;65.58;100877.81;10383120;28;20764;-63
2023/09/14 02:58:42;;;;;;;1.42;0.60;;;;;;;15.24;65.54;100878.69;10387055;28;20133;-63
2023/09/14 03:03:43;;;;;;;3.22;0.70;;;;;;;15.21;65.64;100895.31;10385567;28;20462;-63
2023/09/14 03:08:45;;;;;;;2.28;0.63;;;;;;;15.17;65.95;100891.31;10388125;28;20093;-63
2023/09/14 03:13:47;;;;;;;8.55;0.68;;;;;;;15.12;65.67;100893.75;10382716;28;20041;-63
2023/09/14 03:18:48;;;;;;;4.10;0.90;;;;;;;15.13;65.82;100900.84;10387001;28;20050;-63
2023/09/14 03:23:50;;;;;;;2.28;0.90;;;;;;;15.10;65.74;100900.41;10382262;28;20731;-63
2023/09/14 03:28:52;;;;;;;5.15;0.70;;;;;;;15.06;65.78;100903.47;10387803;28;20132;-65
2023/09/14 03:33:53;;;;;;;1.75;0.70;;;;;;;15.01;66.00;100899.69;10386322;28;20053;-64
2023/09/14 03:38:54;;;;;;;1.55;0.73;;;;;;;14.97;66.06;100909.19;10382128;28;20052;-64
2023/09/14 03:43:56;;;;;;;2.10;0.47;;;;;;;14.94;66.01;100906.88;10381865;28;20045;-64
2023/09/14 03:48:57;;;;;;;6.03;0.80;;;;;;;14.87;66.13;100904.94;10380449;28;20048;-63
2023/09/14 03:53:59;;;;;;;3.78;0.77;;;;;;;14.82;66.26;100893.84;10382294;28;20392;-64
2023/09/14 03:59:01;;;;;;;1.60;0.85;;;;;;;14.82;66.23;100907.38;10378147;28;20553;-67
2023/09/14 04:04:03;;;;;;;3.55;1.52;;;;;;;14.79;66.45;100910.47;10382887;28;20037;-68
2023/09/14 04:09:05;;;;;;;3.55;0.85;;;;;;;14.68;66.61;100919.91;10383984;28;20052;-67
2023/09/14 04:14:06;;;;;;;3.85;0.88;;;;;;;14.56;66.91;100915.16;10383218;28;20073;-66
2023/09/14 04:19:08;;;;;;;4.85;0.80;;;;;;;14.31;67.38;100925.41;10381432;28;20052;-66
2023/09/14 04:24:09;;;;;;;4.78;0.95;;;;;;;14.25;67.64;100927.81;10380299;28;20045;-66
2023/09/14 04:29:11;;;;;;;2.25;1.10;;;;;;;14.31;67.27;100917.31;10381971;28;20041;-66
2023/09/14 04:34:12;;;;;;;9.45;2.05;;;;;;;14.33;67.41;100929.59;10383316;28;20053;-65
2023/09/14 04:39:14;;;;;;;2.42;1.38;;;;;;;14.27;67.51;100924.94;10373285;28;20100;-67
2023/09/14 04:44:15;;;;;;;5.03;1.65;;;;;;;14.24;67.46;100930.75;10384393;28;20132;-65
2023/09/14 04:49:17;;;;;;;4.63;1.38;;;;;;;14.25;67.71;100933.22;10376919;28;20137;-71
2023/09/14 04:54:18;;;;;;;3.28;1.13;;;;;;;14.29;67.71;100939.94;10387155;28;20062;-74
2023/09/14 04:59:20;;;;;;;5.78;3.20;;;;;;;14.38;67.65;100946.13;10413477;28;20049;-74
2023/09/14 05:04:21;;;;;;;3.97;1.20;;;;;;;14.43;67.51;100942.84;10381607;28;20390;-67
2023/09/14 05:09:23;;;;;;;3.67;1.05;;;;;;;14.48;67.64;100943.13;10380150;28;20046;-65
2023/09/14 05:14:25;;;;;;;3.50;1.30;;;;;;;14.46;67.84;100945.19;10377579;28;20046;-66
2023/09/14 05:19:27;;;;;;;5.53;1.75;;;;;;;14.42;67.99;100946.59;10381895;28;20042;-66
2023/09/14 05:24:29;;;;;;;4.40;1.08;;;;;;;14.45;68.22;100944.34;10380438;28;20053;-67
2023/09/14 05:29:30;;;;;;;6.13;1.30;;;;;;;14.52;67.91;100947.16;10386150;28;20041;-66
2023/09/14 05:34:32;;;;;;;2.50;1.05;;;;;;;14.56;67.85;100947.63;10382189;28;20045;-65
2023/09/14 05:39:33;;;;;;;5.15;1.17;;;;;;;14.56;67.97;100955.72;10389050;28;20073;-59
2023/09/14 05:44:35;;;;;;;3.17;1.30;;;;;;;14.49;68.30;100958.31;10391072;28;21341;-60
2023/09/14 05:49:37;;;;;;;4.47;1.10;;;;;;;14.60;68.13;100967.88;10389684;28;20038;-59
2023/09/14 05:54:39;;;;;;;4.00;1.45;;;;;;;14.70;67.95;100971.16;10391401;28;20037;-58
2023/09/14 05:59:41;;;;;;;4.45;1.10;;;;;;;14.81;67.90;100962.56;10388177;28;20092;-60
2023/09/14 06:04:43;;;;;;;4.75;1.38;;;;;;;14.92;67.96;100966.63;10386419;28;20140;-60
2023/09/14 06:09:44;;;;;;;3.40;1.20;;;;;;;15.03;67.89;100968.03;10383265;28;20049;-62
2023/09/14 06:14:46;;;;;;;4.60;1.00;;;;;;;15.16;67.50;100967.31;10384516;28;20425;-66
2023/09/14 06:19:47;;;;;;;3.17;1.20;;;;;;;15.23;67.71;100976.38;10388511;28;20046;-66
2023/09/14 06:24:49;;;;;;;2.38;1.20;;;;;;;15.36;67.73;100967.53;10389341;28;20129;-61
2023/09/14 06:29:50;;;;;;;5.88;1.48;;;;;;;15.49;67.73;100973.09;10388761;28;20499;-63
2023/09/14 06:34:52;;;;;;;3.88;1.17;;;;;;;15.54;67.94;100972.50;10384942;28;20048;-60
2023/09/14 06:39:54;;;;;;;4.20;1.45;;;;;;;15.61;67.99;100966.13;10384675;28;20850;-62
2023/09/14 06:44:56;;;;;;;6.85;1.00;;;;;;;15.84;67.82;100976.81;10381629;28;20103;-62
2023/09/14 06:49:57;;;;;;;4.20;1.27;;;;;;;15.98;67.82;100980.47;10390629;28;20049;-61
2023/09/14 06:54:59;;;;;;;9.60;1.17;;;;;;;16.22;67.55;100970.22;10385617;28;20392;-61
2023/09/14 07:00:00;;;;;;;5.18;0.85;;;;;;;16.40;67.44;100975.13;10386305;28;20046;-62
2023/09/14 07:05:04;;;;;;;6.47;1.55;;;;;;;16.57;67.39;100967.53;10389430;28;20500;-62
2023/09/14 07:10:06;;;;;;;4.63;1.23;;;;;;;16.65;67.50;100972.78;10386514;28;20053;-63
2023/09/14 07:15:08;;;;;;;5.28;1.20;;;;;;;16.87;66.66;100970.00;10386493;28;20042;-62
2023/09/14 07:20:10;;;;;;;4.05;1.08;;;;;;;17.05;66.56;100976.53;10385765;28;20041;-62
2023/09/14 07:25:11;;;;;;;2.80;0.85;;;;;;;17.30;66.35;100999.59;10396580;28;20041;-67
2023/09/14 07:30:14;;;;;;;5.45;1.30;;;;;;;17.47;66.01;101000.06;10386506;28;20076;-68
2023/09/14 07:35:16;;;;;;;5.07;1.30;;;;;;;17.56;65.82;101002.41;10383098;28;20050;-64
2023/09/14 07:40:17;;;;;;;5.10;1.30;;;;;;;17.66;65.39;101003.88;10381979;28;20401;-68
2023/09/14 07:45:19;;;;;;;6.82;1.75;;;;;;;17.83;64.96;101000.59;10381193;28;20057;-68
2023/09/14 07:50:20;;;;;;;3.53;1.20;;;;;;;17.93;64.91;101008.34;10381101;28;20076;-66
2023/09/14 07:55:21;;;;;;;4.82;1.30;;;;;;;17.95;64.65;101008.13;10383458;28;20057;-63
2023/09/14 08:00:23;;;;;;;2.42;0.80;;;;;;;18.04;64.34;101010.41;10383238;28;20037;-68
2023/09/14 08:05:25;;;;;;;4.72;1.58;;;;;;;18.23;63.84;101007.94;10387802;28;20136;-68
2023/09/14 08:10:26;;;;;;;4.60;1.33;;;;;;;18.43;63.23;101007.91;10387951;28;20404;-64
2023/09/14 08:15:28;;;;;;;4.13;0.93;;;;;;;18.61;62.90;101007.22;10383792;28;20409;-68
2023/09/14 08:20:30;;;;;;;5.32;0.85;;;;;;;18.74;62.28;101007.22;10384628;28;20700;-67
2023/09/14 08:25:31;;;;;;;3.28;0.77;;;;;;;18.79;62.07;101023.75;10386531;28;20053;-66
2023/09/14 08:30:33;;;;;;;5.78;1.27;;;;;;;18.90;61.54;101021.41;10385969;28;20493;-68
2023/09/14 08:35:36;;;;;;;17.70;1.48;;;;;;;18.99;60.96;101009.25;10385054;28;20065;-61
2023/09/14 08:40:41;;;;;;;2.45;0.75;;;;;;;19.01;60.46;101023.47;10378006;28;20068;-61
2023/09/14 08:45:43;;;;;;;5.90;0.63;;;;;;;19.25;59.85;101018.34;10370072;28;20108;-61
2023/09/14 08:50:45;;;;;;;4.20;1.30;;;;;;;19.38;59.32;101012.84;10382055;28;20051;-65
2023/09/14 08:55:47;;;;;;;4.72;0.73;;;;;;;19.53;59.06;101021.56;10380261;28;20046;-66
2023/09/14 09:00:51;;;;;;;5.15;0.45;;;;;;;19.67;58.70;101005.09;10378753;28;20501;-66
2023/09/14 09:05:53;;;;;;;5.32;0.80;;;;;;;19.66;58.86;101003.44;10379652;28;20045;-64
2023/09/14 09:10:55;;;;;;;3.22;0.88;;;;;;;19.78;58.29;101013.44;10364837;23;20054;-64
2023/09/14 09:15:56;;;;;;;3.08;0.50;;;;;;;19.96;57.33;101003.66;10332838;28;20076;-63
2023/09/14 09:21:05;;;;;;;1.80;0.50;;;;;;;20.04;57.36;101005.28;10348734;28;20041;-64
2023/09/14 09:26:06;;;;;;;1.45;0.47;;;;;;;20.11;56.80;101014.28;10348883;28;20046;-64
2023/09/14 09:31:08;;;;;;;5.57;0.73;;;;;;;20.23;55.68;101012.47;10349446;28;20037;-66
2023/09/14 09:36:19;;;;;;;6.53;0.43;;;;;;;20.31;54.96;101006.72;10348514;28;20046;-65
2023/09/14 09:41:20;;;;;;;4.40;0.52;;;;;;;20.40;54.18;101002.66;10348299;28;20062;-66
2023/09/14 09:46:22;;;;;;;4.13;0.60;;;;;;;20.65;53.77;101012.72;10337657;28;20046;-64
2023/09/14 09:51:24;;;;;;;5.68;0.43;;;;;;;20.46;53.39;101002.78;10348360;28;20108;-64
2023/09/14 09:56:26;;;;;;;6.60;0.50;;;;;;;20.56;52.67;101003.13;10352141;28;20400;-61
2023/09/14 10:01:27;;;;;;;3.28;0.40;;;;;;;20.81;52.80;100994.88;10332023;28;20053;-61
2023/09/14 10:06:29;;;;;;;2.03;0.40;;;;;;;21.09;51.48;100977.94;10352377;28;20058;-62
2023/09/14 10:11:30;;;;;;;3.50;0.60;;;;;;;21.32;51.13;100979.09;10304003;28;20509;-62
2023/09/14 10:16:38;;;;;;;2.33;0.40;;;;;;;21.63;50.37;100971.75;10305919;28;20058;-63
2023/09/14 10:21:41;;;;;;;6.05;0.60;;;;;;;21.82;50.67;100972.50;10305378;28;20056;-64
2023/09/14 10:26:44;;;;;;;4.32;0.68;;;;;;;22.12;49.80;100964.22;10310809;28;20049;-64
2023/09/14 10:31:48;;;;;;;1.83;0.40;;;;;;;22.65;47.99;100967.88;10308272;28;20043;-62
2023/09/14 10:36:50;;;;;;;2.65;0.60;;;;;;;23.29;47.62;100954.13;10308084;28;20051;-62
2023/09/14 10:41:51;;;;;;;1.40;0.70;;;;;;;23.71;46.70;100949.09;10309244;28;20085;-64
2023/09/14 10:46:56;;;;;;;2.75;0.63;;;;;;;24.13;45.52;100958.84;10303546;28;20054;-61
2023/09/14 10:52:00;;;;;;;1.90;0.35;;;;;;;24.66;43.74;100960.16;10304581;28;20051;-62
2023/09/14 10:57:14;;;;;;;1.83;0.45;;;;;;;24.96;42.83;100949.81;10302055;28;20063;-63
2023/09/14 11:02:37;;;;;;;2.30;0.43;;;;;;;25.02;42.86;100944.13;10312483;28;20050;-63
2023/09/14 11:07:57;;;;;;;4.47;0.40;;;;;;;25.41;41.04;100940.41;10314575;28;20033;-73
2023/09/14 11:13:21;;;;;;;1.65;0.30;;;;;;;25.64;41.42;100939.25;10337415;28;20047;-71
2023/09/14 11:18:49;;;;;;;1.20;0.50;;;;;;;25.68;40.66;100926.63;10341337;28;20073;-72
2023/09/14 11:23:52;;;;;;;1.52;0.20;;;;;;;25.85;40.33;100924.56;10333100;28;20445;-72
2023/09/14 11:28:54;;;;;;;1.50;0.40;;;;;;;26.18;39.23;100928.09;10329272;28;20049;-72
2023/09/14 11:33:57;;;;;;;1.92;0.32;;;;;;;26.38;39.36;100919.09;10346144;28;20042;-68
2023/09/14 11:39:08;;;;;;;3.95;0.47;;;;;;;26.50;39.06;100918.88;10344177;28;20677;-69
2023/09/14 11:44:17;;;;;;;2.58;0.30;;;;;;;26.82;38.19;100920.72;10345131;28;20053;-73
2023/09/14 11:49:25;;;;;;;1.65;0.63;;;;;;;26.88;37.69;100920.47;10333867;28;20046;-73
2023/09/14 11:54:31;;;;;;;4.50;0.45;;;;;;;27.03;37.20;100910.56;10327397;28;20061;-71
2023/09/14 11:59:33;;;;;;;1.87;0.40;;;;;;;27.05;37.03;100914.72;10334013;28;20050;-72
2023/09/14 12:04:34;;;;;;;1.33;0.40;;;;;;;27.13;36.77;100904.25;10343703;28;20042;-73
2023/09/14 12:09:41;;;;;;;1.58;0.32;;;;;;;27.36;35.94;100906.50;10326745;28;20070;-73
2023/09/14 12:14:45;;;;;;;1.33;0.40;;;;;;;27.24;36.57;100909.53;10345123;28;20050;-67
2023/09/14 12:19:53;;;;;;;1.77;0.40;;;;;;;27.33;35.44;100904.31;10341160;28;20046;-67
2023/09/14 12:24:55;;;;;;;3.55;0.40;;;;;;;27.56;36.00;100900.16;10342984;28;20053;-69
2023/09/14 12:29:57;;;;;;;1.40;0.40;;;;;;;27.80;34.88;100905.94;10347799;28;20043;-67
2023/09/14 12:34:59;;;;;;;1.92;0.35;;;;;;;28.01;34.56;100897.66;10341783;28;20137;-69
2023/09/14 12:40:10;;;;;;;3.95;0.30;;;;;;;27.49;34.96;100897.69;10332502;28;20052;-69
2023/09/14 12:45:15;;;;;;;1.58;0.30;;;;;;;27.47;34.66;100893.56;10340709;28;20362;-69
2023/09/14 12:50:16;;;;;;;1.38;0.30;;;;;;;27.71;34.79;100888.28;10327912;28;20050;-69
2023/09/14 12:55:18;;;;;;;1.20;0.40;;;;;;;27.57;34.13;100887.16;10343893;28;20049;-69
2023/09/14 13:00:24;;;;;;;1.60;0.40;;;;;;;27.52;34.28;100882.50;10346575;28;20514;-68
2023/09/14 13:05:27;;;;;;;2.05;0.45;;;;;;;27.85;34.13;100883.03;10339261;28;20054;-71
2023/09/14 13:10:32;;;;;;;0.95;0.43;;;;;;;27.67;34.17;100873.38;10342443;28;20367;-70
2023/09/14 13:15:35;;;;;;;1.70;0.43;;;;;;;27.65;34.26;100872.84;10345944;28;20069;-70
2023/09/14 13:20:45;;;;;;;1.05;0.40;;;;;;;27.74;34.39;100864.78;10337354;28;20376;-69
2023/09/14 13:25:46;;;;;;;1.85;0.40;;;;;;;27.60;34.17;100864.53;10330983;28;20046;-65
2023/09/14 13:30:48;;;;;;;2.28;0.35;;;;;;;27.86;34.43;100865.31;10372918;28;20035;-65
2023/09/14 13:35:50;;;;;;;3.60;0.40;;;;;;;27.99;33.69;100867.53;10355986;28;20537;-64
2023/09/14 13:40:51;;;;;;;1.38;0.73;;;;;;;28.20;32.99;100861.94;10332738;28;20062;-64
2023/09/14 13:45:53;;;;;;;2.30;0.28;;;;;;;28.29;32.83;100854.72;10343862;28;20049;-68
2023/09/14 13:50:55;;;;;;;3.70;0.28;;;;;;;28.44;32.69;100856.63;10346239;28;20046;-66
2023/09/14 13:55:56;;;;;;;0.93;0.30;;;;;;;28.31;32.76;100852.50;10334053;28;20062;-65
2023/09/14 14:00:58;;;;;;;1.67;0.30;;;;;;;28.42;32.43;100845.81;10354620;28;20038;-66
2023/09/14 14:05:59;;;;;;;3.55;0.40;;;;;;;28.64;32.29;100839.94;10343298;28;20369;-65
2023/09/14 14:11:01;;;;;;;1.65;0.30;;;;;;;29.30;32.43;100825.94;10329844;28;20053;-65
2023/09/14 14:16:03;;;;;;;0.73;0.30;;;;;;;29.58;31.79;100824.28;10348624;28;20042;-64
2023/09/14 14:21:05;;;;;;;1.55;0.85;;;;;;;29.80;31.83;100829.34;10354061;28;20038;-68
2023/09/14 14:26:06;;;;;;;1.02;0.30;;;;;;;29.81;31.31;100814.38;10360551;28;20042;-66
2023/09/14 14:31:08;;;;;;;4.32;0.40;;;;;;;31.77;29.00;100807.63;10358095;28;20068;-66
2023/09/14 14:36:09;;;;;;;3.53;0.35;;;;;;;33.36;26.87;100801.34;10364545;28;20042;-66
2023/09/14 14:41:11;;;;;;;3.85;0.40;;;;;;;33.52;26.94;100807.34;10357469;28;20134;-67
2023/09/14 14:46:15;;;;;;;2.38;0.68;;;;;;;33.84;26.40;100808.16;10378418;28;20154;-69
2023/09/14 14:51:17;;;;;;;2.47;0.40;;;;;;;33.43;26.28;100801.69;10379006;28;20129;-67
2023/09/14 14:56:19;;;;;;;2.60;0.40;;;;;;;33.73;26.45;100805.66;10364155;28;20134;-66
2023/09/14 15:01:20;;;;;;;3.10;0.30;;;;;;;33.17;26.50;100802.34;10354222;28;20050;-66
2023/09/14 15:06:25;;;;;;;2.13;0.40;;;;;;;32.61;26.56;100800.91;10352216;28;20046;-67
2023/09/14 15:11:28;;;;;;;1.13;0.30;;;;;;;31.46;27.71;100801.81;10365538;28;20062;-63
2023/09/14 15:16:31;;;;;;;0.82;0.30;;;;;;;30.45;28.26;100798.38;10368499;28;20065;-64
2023/09/14 15:33:12;;;;;;;1.50;0.38;;;;;;;28.69;30.52;100786.50;10433967;28;20045;-93
2023/09/14 15:38:18;;;;;;;2.17;0.30;;;;;;;28.68;30.50;100785.69;10414741;28;20067;-93
2023/09/14 15:43:22;;;;;;;2.60;0.30;;;;;;;28.55;30.75;100777.19;10413127;28;20053;-92
2023/09/14 15:48:28;;;;;;;1.10;0.30;;;;;;;28.35;31.30;100787.22;10422138;28;20529;-92
2023/09/14 15:53:30;;;;;;;2.88;0.80;;;;;;;28.16;30.90;100791.72;10404358;28;20287;-94
2023/09/14 15:58:32;;;;;;;2.35;0.30;;;;;;;27.85;31.67;100781.59;10419883;28;20049;-92
2023/09/14 16:03:36;;;;;;;1.30;0.38;;;;;;;27.69;31.97;100789.09;10445340;28;20068;-92
2023/09/14 16:08:39;;;;;;;1.13;0.30;;;;;;;27.54;32.55;100777.25;10418175;28;20091;-92
2023/09/14 16:13:42;;;;;;;1.65;0.50;;;;;;;27.36;32.73;100775.91;10443674;28;20108;-93
2023/09/14 16:18:49;;;;;;;4.10;0.30;;;;;;;27.12;32.92;100781.16;10448892;28;20078;-93
2023/09/14 16:23:52;;;;;;;1.45;0.30;;;;;;;26.94;33.63;100774.25;10420881;28;20117;-93
2023/09/14 16:28:55;;;;;;;3.40;0.57;;;;;;;26.23;34.51;100781.25;10438256;28;20056;-92
2023/09/14 16:34:00;;;;;;;1.47;0.30;;;;;;;26.10;34.31;100768.78;10424002;28;20064;-92
2023/09/14 16:39:08;;;;;;;1.55;0.30;;;;;;;25.78;34.80;100772.47;10463373;28;20056;-92
2023/09/14 16:44:10;;;;;;;1.52;0.35;;;;;;;25.59;34.70;100776.75;10448723;28;20060;-93
2023/09/14 16:49:24;;;;;;;1.63;0.40;;;;;;;25.29;35.56;100764.44;10460341;28;20041;-91
2023/09/14 16:54:30;;;;;;;2.58;0.32;;;;;;;25.06;35.98;100760.94;10453491;28;20561;-92
2023/09/14 16:59:36;;;;;;;1.02;0.30;;;;;;;24.78;36.39;100769.47;10455960;28;20053;-93
2023/09/14 17:04:41;;;;;;;1.23;0.40;;;;;;;24.49;37.21;100762.31;10460976;28;20032;-93
2023/09/14 17:09:44;;;;;;;1.42;0.40;;;;;;;24.25;37.40;100769.16;10473877;28;20642;-93
2023/09/14 17:14:47;;;;;;;4.22;0.32;;;;;;;23.90;38.09;100773.97;10435174;28;20200;-93
2023/09/14 17:19:49;;;;;;;3.80;0.50;;;;;;;23.62;38.65;100777.66;10457621;23;20053;-60
2023/09/14 17:24:51;;;;;;;0.75;0.20;;;;;;;23.17;39.34;100778.63;10407458;28;20149;-59
2023/09/14 17:29:52;;;;;;;3.78;0.40;;;;;;;22.89;40.23;100779.50;10435939;28;20659;-60
2023/09/14 17:34:54;;;;;;;2.05;0.68;;;;;;;22.61;40.88;100781.19;10496721;28;20111;-60
2023/09/14 17:39:56;;;;;;;1.40;0.45;;;;;;;22.31;41.58;100773.19;10499249;28;20040;-57
2023/09/14 17:44:57;;;;;;;3.70;0.30;;;;;;;22.07;42.15;100784.19;10488072;28;20503;-61
2023/09/14 17:49:59;;;;;;;1.70;0.50;;;;;;;21.85;42.58;100781.25;10500819;28;20049;-63
2023/09/14 17:55:00;;;;;;;1.15;0.60;;;;;;;21.67;43.31;100792.34;10476394;28;20376;-63
2023/09/14 18:00:04;;;;;;;2.80;0.50;;;;;;;21.41;44.22;100793.63;10480362;28;20151;-60
2023/09/14 18:05:06;;;;;;;2.97;0.60;;;;;;;21.10;44.97;100801.91;10496225;28;20403;-61
2023/09/14 18:10:11;;;;;;;1.73;0.50;;;;;;;20.73;45.66;100796.56;10493273;28;20098;-62
2023/09/14 18:15:13;;;;;;;1.48;0.50;;;;;;;20.43;46.21;100784.78;10492090;28;20106;-64
2023/09/14 18:20:17;;;;;;;4.43;0.70;;;;;;;20.24;46.49;100803.94;10472140;28;20063;-60
2023/09/14 18:25:19;;;;;;;2.55;0.60;;;;;;;20.00;47.22;100806.53;10484217;28;20045;-61
2023/09/14 18:30:21;;;;;;;3.67;0.55;;;;;;;19.72;48.02;100803.47;10482482;28;20053;-61
2023/09/14 18:35:22;;;;;;;3.83;0.43;;;;;;;19.45;48.58;100805.56;10461400;28;20045;-59
2023/09/14 18:40:24;;;;;;;2.92;0.60;;;;;;;19.38;48.80;100805.63;10485680;28;20048;-60
2023/09/14 18:45:26;;;;;;;3.17;0.60;;;;;;;19.27;49.11;100809.91;10462984;28;20056;-60
2023/09/14 18:50:27;;;;;;;2.75;0.50;;;;;;;19.15;49.42;100812.50;10468668;28;20135;-59
2023/09/14 18:55:31;;;;;;;2.38;0.50;;;;;;;18.91;50.16;100813.31;10466326;28;20454;-61
2023/09/14 19:00:35;;;;;;;1.92;0.50;;;;;;;18.71;50.59;100816.16;10447620;28;20052;-60
2023/09/14 19:05:37;;;;;;;2.15;0.60;;;;;;;18.66;50.65;100819.53;10479553;28;20114;-61
2023/09/14 19:10:38;;;;;;;3.60;0.57;;;;;;;18.51;51.08;100811.63;10466391;28;20048;-59
2023/09/14 19:15:40;;;;;;;0.93;0.57;;;;;;;18.29;51.72;100826.63;10461969;28;20051;-59
2023/09/14 19:20:45;;;;;;;2.97;0.60;;;;;;;18.14;52.12;100819.53;10460853;28;20052;-58
2023/09/14 19:25:53;;;;;;;3.00;0.40;;;;;;;18.07;52.31;100818.72;10478825;28;20056;-59
2023/09/14 19:30:57;;;;;;;0.93;0.40;;;;;;;18.03;52.49;100822.94;10478795;28;20044;-59
2023/09/14 19:35:59;;;;;;;3.72;0.60;;;;;;;17.95;52.77;100823.13;10465631;28;20129;-60
2023/09/14 19:41:01;;;;;;;4.78;0.80;;;;;;;17.88;52.99;100833.22;10447146;28;20055;-59
2023/09/14 19:46:02;;;;;;;4.40;1.00;;;;;;;17.81;52.83;100828.59;10480899;28;20048;-60
2023/09/14 19:51:06;;;;;;;2.70;0.40;;;;;;;17.63;53.73;100837.41;10481920;28;20044;-61
2023/09/14 19:56:08;;;;;;;3.40;0.47;;;;;;;17.58;53.76;100831.75;10446701;28;20072;-61
2023/09/14 20:01:10;;;;;;;1.60;0.40;;;;;;;17.51;53.90;100835.53;10461973;28;20044;-59
2023/09/14 20:06:11;;;;;;;3.75;0.75;;;;;;;17.37;54.13;100840.94;10446326;28;20059;-59
2023/09/14 20:11:13;;;;;;;4.00;0.50;;;;;;;17.33;54.18;100833.44;10471449;28;20143;-60
2023/09/14 20:16:15;;;;;;;1.58;0.50;;;;;;;17.21;54.42;100831.31;10483029;28;20064;-61
2023/09/14 20:21:17;;;;;;;3.13;0.90;;;;;;;17.02;54.99;100840.28;10448746;28;20372;-60
2023/09/14 20:26:18;;;;;;;1.70;0.65;;;;;;;16.95;55.22;100836.75;10465790;28;20053;-60
2023/09/14 20:31:22;;;;;;;1.92;0.60;;;;;;;17.00;55.15;100831.50;10465809;28;20388;-60
2023/09/14 20:36:30;;;;;;;2.63;1.00;;;;;;;16.90;55.15;100828.38;10481557;28;20051;-64
2023/09/14 20:41:32;;;;;;;2.30;0.40;;;;;;;16.77;55.65;100821.00;10481644;28;20109;-64
2023/09/14 20:46:34;;;;;;;3.67;0.50;;;;;;;16.62;56.00;100819.28;10495880;28;20045;-64
2023/09/14 20:51:35;;;;;;;6.95;0.90;;;;;;;16.63;56.13;100820.13;10481767;28;20578;-64
2023/09/14 20:56:37;;;;;;;2.95;0.70;;;;;;;16.57;56.31;100815.53;10458982;28;20044;-61
2023/09/14 21:01:39;;;;;;;10.13;0.60;;;;;;;16.52;56.70;100807.16;10486076;28;20147;-63
2023/09/14 21:06:40;;;;;;;4.00;0.55;;;;;;;16.40;56.87;100807.72;10454041;28;20049;-63
2023/09/14 21:11:42;;;;;;;2.83;0.60;;;;;;;16.35;57.15;100799.38;10462841;28;20118;-62
2023/09/14 21:16:43;;;;;;;4.13;0.60;;;;;;;16.31;57.44;100798.13;10471954;28;20048;-62
2023/09/14 21:21:57;;;;;;;1.30;0.47;;;;;;;16.31;57.34;100794.53;10493910;28;20067;-63
2023/09/14 21:26:59;;;;;;;2.17;0.50;;;;;;;16.36;57.12;100794.78;10489469;28;20076;-65
2023/09/14 21:32:00;;;;;;;2.85;0.68;;;;;;;16.26;57.15;100793.28;10491144;28;20056;-62
2023/09/14 21:37:02;;;;;;;2.88;0.65;;;;;;;16.20;57.46;100783.25;10473463;28;20380;-62
2023/09/14 21:42:04;;;;;;;3.10;0.57;;;;;;;16.09;57.66;100783.81;10490795;28;20143;-62
2023/09/14 21:47:06;;;;;;;2.17;0.70;;;;;;;16.14;57.58;100783.22;10486966;28;20052;-60
2023/09/14 21:52:09;;;;;;;3.35;0.43;;;;;;;16.14;57.68;100778.63;10488623;28;20079;-60
2023/09/14 21:57:10;;;;;;;8.05;1.17;;;;;;;16.00;57.99;100783.16;10487697;28;20127;-60
2023/09/14 22:02:12;;;;;;;2.78;0.90;;;;;;;16.04;58.07;100783.59;10488222;28;20646;-60
2023/09/14 22:07:13;;;;;;;1.70;0.50;;;;;;;16.08;58.01;100767.75;10489073;28;20040;-60
2023/09/14 22:12:15;;;;;;;1.70;0.47;;;;;;;16.10;57.86;100762.97;10485617;28;20079;-60
2023/09/14 22:17:16;;;;;;;3.60;0.65;;;;;;;16.08;58.17;100765.03;10486455;28;20044;-58
2023/09/14 22:22:18;;;;;;;3.20;0.68;;;;;;;16.00;58.55;100761.47;10490001;28;20131;-59
2023/09/14 22:27:20;;;;;;;1.92;0.73;;;;;;;15.93;58.73;100759.75;10471092;28;20055;-58
2023/09/14 22:32:21;;;;;;;1.63;0.60;;;;;;;15.87;58.97;100764.09;10486318;28;20439;-60
2023/09/14 22:37:23;;;;;;;3.35;0.63;;;;;;;15.80;59.19;100761.38;10486573;28;20048;-60
2023/09/14 22:42:36;;;;;;;3.30;0.60;;;;;;;15.72;59.13;100760.63;10485581;28;20060;-59
2023/09/14 22:47:37;;;;;;;1.40;0.50;;;;;;;15.63;59.61;100760.81;10483676;28;20051;-59
2023/09/14 22:52:39;;;;;;;2.25;0.50;;;;;;;15.54;59.84;100755.72;10487027;28;20064;-58
2023/09/14 22:57:40;;;;;;;4.32;0.75;;;;;;;15.50;59.89;100751.75;10484648;28;20071;-59
2023/09/14 23:02:42;;;;;;;3.13;0.52;;;;;;;15.41;60.07;100749.19;10484877;28;20072;-59
2023/09/14 23:07:44;;;;;;;2.70;1.50;;;;;;;15.33;60.16;100743.94;10484365;28;20080;-59
2023/09/14 23:12:47;;;;;;;2.65;0.65;;;;;;;15.28;60.60;100749.09;10485696;28;20045;-58
2023/09/14 23:17:49;;;;;;;2.53;0.70;;;;;;;15.25;60.63;100752.22;10483995;28;20100;-58
2023/09/14 23:22:55;;;;;;;5.35;0.73;;;;;;;15.18;60.73;100752.16;10485946;28;20071;-59